الصفحة الرئيسية
METAR-TAF:

METAR-TAF

مطار :

Debrecen, المجر

دائرة عرض: 47-29N, خط طول: 021-36E, ارتفاع: 108 متر

مراقبة الطقس الحالي

تاريخ ووقت الإصدار 27 دقيقة قبل الساعة 18:02UTC
ريح 4 عقدة من الشرق/الشمال الشرقي
درجة الحرارة 27°درجة مئوية
الرطوبة 66%
ضغط 1009 hPa
الرؤية 10 كم أو أكثر
غيوم قليلة على ارتفاع 7400 قدم
عاصفة رعدية بالجوار

METAR: LHDC 021802Z AUTO 07004KT 9999 VCTS FEW074 //////CB 27/20 Q1009

زمن: 20:29 (18:29 UTC)

توقعات

تاريخ ووقت الإصدار 22ساعات و 14 دقيقة قبل الساعة 20:15UTC
التوقعات صالحة من01 الساعة 21 UTC إلى 02 الساعة 06 UTC
ريح 6 عقدة من الشرق/الجنوب الشرقي
الرؤية 10 كم أو أكثر
الغيوم لا تقل 1500 م ولا وجود لمزنة ركامية السحاب الأسود

TAF: LHDC 012015Z 0121/0206 12006KT CAVOK

أرصاد الطقس والتوقعات من أكثر من 4000 مطار (تقارير الطقس للمطار METAR والتنبؤ بالطقس بالمطارTAF).

المحطات المتاحة هي النقط الصفراء والحمراء على الخريطة.

حرك المؤشر فوق النقطة لمعرفة اسم المحطة.

ثم انقر لمعرفة أرصاد وتوقعات الطقس.

لتغيير الخارطة: اضغط على الأزرار الخضراء مع رمز الصليب الأسود للتكبير. على الزر الأخضر مع شرطة للتصغير، أو على الأسهم الخضراء للخرائط المجاورة.


METAR-TAF: